Time;durP1;ratioP1;P1;durP2;ratioP2;P2;SDS_P1;SDS_P2;PMS_P1;PMS_P2;Temp;Humidity;BMP_temperature;BMP_pressure;BME280_temperature;BME280_humidity;BME280_pressure;Samples;Min_cycle;Max_cycle;Signal;HPM_P1;HPM_P2
2020/12/31 07:30:51;;;;;;;22.35;9.98;;;;;;;12.27;62.42;93074.16;5086124;27;20898;-74
2020/12/31 07:33:34;;;;;;;25.30;10.73;;;;;;;12.26;63.83;93070.75;5074097;28;20036;-74
2020/12/31 07:36:11;;;;;;;27.63;9.98;;;;;;;12.30;63.70;93071.69;5081101;27;20506;-74
2020/12/31 07:38:37;;;;;;;31.90;12.57;;;;;;;12.23;62.86;93071.38;5064272;28;20530;-74
2020/12/31 07:41:02;;;;;;;22.75;8.32;;;;;;;12.25;63.39;93063.13;5072061;28;20198;-75
2020/12/31 07:43:28;;;;;;;19.52;6.88;;;;;;;12.21;61.84;93073.59;5082186;28;20601;-74
2020/12/31 07:45:58;;;;;;;26.95;7.03;;;;;;;12.10;60.91;93075.78;5069465;28;20040;-74
2020/12/31 07:48:25;;;;;;;14.88;6.90;;;;;;;12.08;60.88;93079.81;5085116;28;20442;-74
2020/12/31 07:50:58;;;;;;;32.80;11.77;;;;;;;12.03;61.33;93075.47;5083991;28;20154;-73
2020/12/31 07:53:24;;;;;;;16.55;9.80;;;;;;;11.99;64.33;93076.41;5080323;28;20078;-74
2020/12/31 07:56:00;;;;;;;15.13;5.32;;;;;;;11.97;62.00;93078.63;5068812;27;20020;-75
2020/12/31 07:58:29;;;;;;;18.77;8.80;;;;;;;11.96;63.59;93088.44;5085246;28;20063;-74
2020/12/31 08:01:02;;;;;;;33.53;17.48;;;;;;;11.87;65.48;93087.66;5087261;27;20047;-74
2020/12/31 08:03:28;;;;;;;21.05;10.32;;;;;;;11.95;66.10;93070.97;5082330;28;20499;-75
2020/12/31 08:06:04;;;;;;;23.83;9.70;;;;;;;11.98;65.59;93080.16;5085753;28;20051;-74
2020/12/31 08:08:31;;;;;;;28.02;11.02;;;;;;;12.05;66.76;93094.47;5067060;28;20042;-75
2020/12/31 08:10:57;;;;;;;20.15;9.10;;;;;;;11.94;65.40;93080.00;5083568;28;20032;-74
2020/12/31 08:13:23;;;;;;;28.05;10.45;;;;;;;12.06;65.65;93072.22;5070611;28;20100;-74
2020/12/31 08:15:52;;;;;;;21.77;8.95;;;;;;;12.33;66.04;93107.34;5088580;28;20048;-75
2020/12/31 08:18:19;;;;;;;21.88;9.23;;;;;;;12.45;66.22;93102.97;5082650;27;20044;-75
2020/12/31 08:20:47;;;;;;;25.05;8.82;;;;;;;12.57;65.85;93102.28;5062058;28;20032;-75
2020/12/31 08:23:18;;;;;;;16.75;7.18;;;;;;;12.70;65.49;93100.56;5064148;28;20130;-74
2020/12/31 08:25:46;;;;;;;17.60;8.55;;;;;;;12.78;64.81;93103.16;5086719;28;20104;-75
2020/12/31 08:28:17;;;;;;;16.05;7.70;;;;;;;12.77;65.18;93106.13;5083874;28;20384;-74
2020/12/31 08:30:42;;;;;;;20.98;7.03;;;;;;;12.78;63.80;93094.44;5086292;28;20112;-74
2020/12/31 08:33:10;;;;;;;20.52;7.82;;;;;;;12.78;63.28;93086.47;5082936;28;20497;-75
2020/12/31 08:35:41;;;;;;;21.83;9.85;;;;;;;12.76;62.91;93093.97;5087157;27;20052;-75
2020/12/31 08:38:15;;;;;;;20.65;8.75;;;;;;;12.86;63.63;93085.66;5086113;28;20078;-74
2020/12/31 08:40:47;;;;;;;17.75;7.03;;;;;;;12.97;62.77;93094.81;5081734;28;20889;-75
2020/12/31 08:43:21;;;;;;;24.05;9.65;;;;;;;13.01;63.30;93090.41;5071209;28;20040;-75
2020/12/31 08:45:50;;;;;;;23.52;10.23;;;;;;;13.05;63.23;93095.88;5071971;28;20033;-75
2020/12/31 08:48:29;;;;;;;16.75;7.70;;;;;;;13.17;62.40;93099.41;5069272;28;20385;-75
2020/12/31 08:51:12;;;;;;;16.52;6.28;;;;;;;13.26;61.99;93081.56;5059674;28;20044;-75
2020/12/31 08:53:53;;;;;;;20.15;8.05;;;;;;;13.20;62.29;93082.84;5066536;28;20040;-80
2020/12/31 08:56:21;;;;;;;21.70;8.52;;;;;;;13.26;61.62;93086.88;5060486;28;20079;-78
2020/12/31 08:58:47;;;;;;;15.40;7.68;;;;;;;13.20;61.80;93090.81;5052172;28;20082;-78
2020/12/31 09:01:27;;;;;;;22.13;8.60;;;;;;;13.11;62.13;93087.44;5068389;28;20012;-77
2020/12/31 09:04:16;;;;;;;27.08;10.23;;;;;;;13.06;63.77;93076.97;5049733;28;20036;-77
2020/12/31 09:06:42;;;;;;;17.70;9.10;;;;;;;13.15;63.86;93085.69;5067736;28;20036;-77
2020/12/31 09:09:28;;;;;;;24.27;13.77;;;;;;;13.21;64.07;93084.41;5053021;28;20151;-77
2020/12/31 09:12:06;;;;;;;50.08;26.40;;;;;;;13.28;64.62;93073.28;5057123;28;20042;-77
2020/12/31 09:14:34;;;;;;;26.75;14.10;;;;;;;13.14;64.78;93073.53;5071116;28;20047;-77
2020/12/31 09:17:00;;;;;;;28.70;15.40;;;;;;;13.13;64.94;93073.84;5068580;28;20122;-77
2020/12/31 09:19:26;;;;;;;31.30;18.80;;;;;;;13.21;64.55;93075.66;5048540;28;20551;-77
2020/12/31 09:21:52;;;;;;;20.20;8.40;;;;;;;13.40;63.20;93082.09;5069011;28;20051;-77
2020/12/31 09:24:22;;;;;;;35.45;21.90;;;;;;;13.51;62.62;93081.72;5069057;28;20142;-77
2020/12/31 09:26:57;;;;;;;30.77;18.15;;;;;;;13.65;63.46;93074.25;5061263;28;20037;-77
2020/12/31 09:29:24;;;;;;;20.25;13.07;;;;;;;13.82;63.55;93072.25;5053088;28;20124;-77
2020/12/31 09:31:50;;;;;;;18.60;8.75;;;;;;;13.82;62.82;93061.63;5069333;28;20036;-77
2020/12/31 09:34:16;;;;;;;16.08;7.78;;;;;;;13.76;62.67;93046.22;5055102;28;20081;-77
2020/12/31 09:36:42;;;;;;;11.32;7.18;;;;;;;13.74;62.59;93054.50;5069896;28;20036;-77
2020/12/31 09:39:07;;;;;;;15.15;8.30;;;;;;;13.74;62.90;93038.56;5070893;28;20046;-77
2020/12/31 09:41:33;;;;;;;17.88;8.07;;;;;;;13.88;63.19;93032.97;5070658;28;20067;-77
2020/12/31 09:43:59;;;;;;;16.52;7.88;;;;;;;13.97;63.39;93024.94;5069788;28;20115;-77
2020/12/31 09:46:24;;;;;;;16.40;7.70;;;;;;;13.99;62.78;93010.22;5074945;28;20601;-77
2020/12/31 09:48:50;;;;;;;18.45;7.40;;;;;;;13.79;62.06;93013.69;5048095;28;20102;-77
2020/12/31 09:51:20;;;;;;;24.10;8.27;;;;;;;13.92;62.96;93007.34;5049472;28;20493;-77
2020/12/31 09:53:46;;;;;;;23.95;9.98;;;;;;;13.62;64.04;92993.41;5057067;28;20036;-77
2020/12/31 09:56:12;;;;;;;19.85;8.32;;;;;;;13.79;64.14;92998.53;5070958;28;20551;-77
2020/12/31 09:58:41;;;;;;;20.20;9.57;;;;;;;13.81;62.25;92990.25;5073072;28;20040;-77
2020/12/31 10:01:06;;;;;;;16.13;7.90;;;;;;;13.76;63.22;92995.78;5060140;28;20087;-77
2020/12/31 10:03:32;;;;;;;14.55;8.82;;;;;;;13.73;62.57;92988.47;5066016;28;20067;-76
2020/12/31 10:05:57;;;;;;;21.40;10.82;;;;;;;13.65;63.53;92979.47;5073022;28;20040;-77
2020/12/31 10:08:23;;;;;;;20.98;9.68;;;;;;;13.59;64.28;92987.94;5070884;28;20060;-76
2020/12/31 10:10:48;;;;;;;16.73;9.63;;;;;;;13.55;64.60;92985.19;5073046;28;20021;-77
2020/12/31 10:13:14;;;;;;;19.60;11.15;;;;;;;13.55;64.39;92974.56;5060131;28;20032;-77
2020/12/31 10:15:39;;;;;;;24.42;11.98;;;;;;;13.52;65.62;92977.09;5054448;28;20056;-77
2020/12/31 10:18:05;;;;;;;27.83;15.40;;;;;;;13.47;65.92;92990.56;5066629;28;20032;-77
2020/12/31 10:20:31;;;;;;;28.23;14.85;;;;;;;13.60;65.44;93000.13;5069907;28;20051;-77
2020/12/31 10:22:57;;;;;;;21.35;12.63;;;;;;;13.76;64.81;92993.13;5069598;28;20097;-77
2020/12/31 10:25:22;;;;;;;23.10;12.05;;;;;;;13.83;65.06;92977.41;5058487;28;20552;-77
2020/12/31 10:27:48;;;;;;;25.58;10.80;;;;;;;13.89;63.78;92976.09;5072591;28;20643;-77
2020/12/31 10:30:13;;;;;;;23.42;12.55;;;;;;;13.93;64.00;92966.38;5065050;28;20041;-77
2020/12/31 10:32:39;;;;;;;22.17;11.65;;;;;;;14.28;63.29;92986.16;5070026;28;20603;-79
2020/12/31 10:35:05;;;;;;;24.10;13.07;;;;;;;14.41;63.84;92975.56;5053665;28;20097;-79
2020/12/31 10:37:30;;;;;;;18.17;11.23;;;;;;;14.54;62.58;92963.81;5072866;28;20019;-78
2020/12/31 10:39:56;;;;;;;23.00;11.13;;;;;;;14.72;63.55;92978.44;5054173;28;20068;-78
2020/12/31 10:42:21;;;;;;;12.55;8.50;;;;;;;15.03;60.46;92961.91;5046210;28;20516;-76
2020/12/31 10:44:47;;;;;;;12.50;7.15;;;;;;;15.31;59.32;92967.25;5037853;28;20090;-76
2020/12/31 10:47:12;;;;;;;14.65;7.88;;;;;;;15.57;57.55;92944.47;5045725;28;20494;-76
2020/12/31 10:49:38;;;;;;;16.67;6.80;;;;;;;15.93;53.30;92951.47;5041432;28;20063;-76
2020/12/31 10:52:03;;;;;;;12.15;4.82;;;;;;;16.26;49.32;92932.53;5040572;28;20055;-76
2020/12/31 10:54:29;;;;;;;9.80;4.15;;;;;;;16.65;49.61;92928.13;5041051;28;20048;-77
2020/12/31 10:56:58;;;;;;;8.15;4.35;;;;;;;16.88;48.65;92923.69;5032524;28;20082;-77
2020/12/31 10:59:25;;;;;;;9.73;5.00;;;;;;;17.14;47.56;92915.09;5046190;28;20117;-76
2020/12/31 11:01:52;;;;;;;15.05;4.60;;;;;;;17.21;47.82;92917.91;5043210;28;20116;-76
2020/12/31 11:04:18;;;;;;;8.70;5.13;;;;;;;17.29;48.59;92911.59;5065795;28;20476;-77
2020/12/31 11:06:44;;;;;;;7.28;2.95;;;;;;;16.91;44.67;92902.78;5061323;28;20079;-76
2020/12/31 11:09:09;;;;;;;7.05;3.60;;;;;;;16.80;45.06;92916.66;5066865;28;20040;-76
2020/12/31 11:11:38;;;;;;;7.43;2.67;;;;;;;16.52;44.72;92925.91;5064343;28;20514;-76
2020/12/31 11:14:04;;;;;;;6.93;3.55;;;;;;;16.55;44.58;92893.19;5060538;28;20503;-77
2020/12/31 11:16:29;;;;;;;11.02;5.72;;;;;;;16.49;46.87;92895.34;5068065;28;20035;-76
2020/12/31 11:18:57;;;;;;;13.10;4.70;;;;;;;16.39;46.27;92904.66;5051534;28;20099;-77
2020/12/31 11:21:23;;;;;;;6.45;1.98;;;;;;;16.12;41.91;92908.19;5064960;28;20036;-76
2020/12/31 11:23:49;;;;;;;11.70;3.75;;;;;;;16.25;42.90;92911.53;5066528;28;20060;-77
2020/12/31 11:26:16;;;;;;;6.13;3.08;;;;;;;16.28;43.73;92911.59;5065015;28;20036;-76
2020/12/31 11:28:42;;;;;;;5.18;2.45;;;;;;;16.12;42.60;92920.75;5066776;28;20024;-77
2020/12/31 11:31:11;;;;;;;8.25;3.10;;;;;;;16.01;44.82;92909.81;5066052;28;20621;-76
2020/12/31 11:33:37;;;;;;;9.75;3.75;;;;;;;16.26;45.41;92889.09;5064232;28;20067;-76
2020/12/31 11:36:07;;;;;;;9.25;2.97;;;;;;;16.06;43.52;92887.47;5062518;28;20036;-77
2020/12/31 11:38:32;;;;;;;14.27;7.30;;;;;;;16.06;44.01;92888.25;5069346;28;20043;-76
2020/12/31 11:40:58;;;;;;;12.05;4.15;;;;;;;16.04;44.18;92901.91;5049363;28;20032;-76
2020/12/31 11:43:23;;;;;;;13.13;4.15;;;;;;;16.15;42.96;92893.38;5052721;28;20117;-77
2020/12/31 11:45:49;;;;;;;6.38;3.45;;;;;;;16.29;42.16;92909.72;5065093;28;20040;-77
2020/12/31 11:48:14;;;;;;;6.85;2.15;;;;;;;16.27;40.29;92888.72;5063508;28;20040;-77
2020/12/31 11:50:40;;;;;;;5.00;2.00;;;;;;;16.26;40.80;92886.44;5064123;28;20045;-77
2020/12/31 11:53:05;;;;;;;8.65;2.30;;;;;;;16.31;39.92;92892.28;5064579;28;20130;-76
2020/12/31 11:55:31;;;;;;;8.98;2.47;;;;;;;16.23;39.82;92900.44;5063489;28;20023;-77
2020/12/31 11:57:57;;;;;;;5.95;1.98;;;;;;;16.34;41.34;92899.56;5061216;28;20393;-77
2020/12/31 12:00:22;;;;;;;5.55;2.00;;;;;;;16.41;41.35;92901.63;5063598;28;20044;-77
2020/12/31 12:02:48;;;;;;;4.72;2.33;;;;;;;16.31;40.09;92912.81;5064778;28;20117;-76
2020/12/31 12:05:13;;;;;;;5.32;1.95;;;;;;;16.10;38.77;92899.75;5060692;28;20106;-77
2020/12/31 12:07:39;;;;;;;8.40;2.92;;;;;;;16.25;39.76;92912.31;5066093;28;20039;-78
2020/12/31 12:10:05;;;;;;;8.98;3.65;;;;;;;16.31;40.73;92899.50;5064414;28;20048;-77
2020/12/31 12:12:31;;;;;;;4.53;1.70;;;;;;;16.29;39.30;92891.06;5048166;28;20108;-77
2020/12/31 12:14:56;;;;;;;3.13;1.40;;;;;;;16.22;38.71;92881.03;5052489;28;20722;-77
2020/12/31 12:17:22;;;;;;;5.93;1.52;;;;;;;16.36;39.85;92897.34;5046415;28;20392;-77
2020/12/31 12:19:47;;;;;;;2.42;1.60;;;;;;;16.37;40.06;92890.88;5051689;28;20085;-77
2020/12/31 12:22:13;;;;;;;3.28;2.00;;;;;;;16.41;40.58;92894.41;5071730;28;20399;-77
2020/12/31 12:24:38;;;;;;;6.20;1.52;;;;;;;16.45;38.89;92897.94;5048077;28;20159;-77
2020/12/31 12:27:06;;;;;;;8.10;1.67;;;;;;;16.21;39.01;92902.69;5047459;28;20063;-77
2020/12/31 12:29:32;;;;;;;9.90;5.03;;;;;;;16.33;40.10;92900.69;5053687;28;20182;-77
2020/12/31 12:31:57;;;;;;;4.50;2.67;;;;;;;16.46;39.80;92893.38;5067908;28;20024;-76
2020/12/31 12:34:23;;;;;;;9.07;1.90;;;;;;;16.36;38.39;92913.34;5071916;28;20020;-76
2020/12/31 12:36:49;;;;;;;6.75;1.40;;;;;;;16.07;40.21;92902.34;5049317;28;20052;-78
2020/12/31 12:39:15;;;;;;;5.45;1.65;;;;;;;16.15;40.59;92888.06;5050319;28;20036;-78
2020/12/31 12:41:41;;;;;;;5.13;1.50;;;;;;;15.95;39.64;92887.97;5042427;28;20686;-77
2020/12/31 12:44:06;;;;;;;11.93;5.85;;;;;;;16.15;40.24;92896.06;5046102;28;20048;-75
2020/12/31 12:46:32;;;;;;;21.85;12.32;;;;;;;16.09;38.71;92892.09;5050762;28;20032;-75
2020/12/31 12:48:58;;;;;;;5.90;3.08;;;;;;;16.11;39.22;92890.66;5044255;28;20055;-76
2020/12/31 12:51:29;;;;;;;8.00;4.45;;;;;;;16.14;40.87;92881.19;5047861;28;20059;-76
2020/12/31 12:53:55;;;;;;;2.63;1.45;;;;;;;15.97;39.32;92896.41;5047151;28;20106;-76
2020/12/31 12:56:20;;;;;;;3.78;1.48;;;;;;;16.03;40.25;92891.56;5046235;28;20045;-76
2020/12/31 12:58:46;;;;;;;3.22;1.75;;;;;;;16.03;40.57;92895.00;5046692;28;20033;-76
2020/12/31 13:01:13;;;;;;;5.38;2.35;;;;;;;15.86;40.92;92889.25;5067970;28;20063;-79
2020/12/31 13:03:39;;;;;;;6.53;2.22;;;;;;;15.79;42.28;92895.16;5047302;28;20094;-76
2020/12/31 13:06:04;;;;;;;4.10;1.90;;;;;;;15.70;41.87;92891.91;5054574;28;20036;-77
2020/12/31 13:08:30;;;;;;;5.53;1.73;;;;;;;15.66;42.01;92896.38;5071782;28;20491;-78
2020/12/31 13:10:55;;;;;;;5.40;1.30;;;;;;;15.55;41.92;92874.78;5067825;28;20028;-78
2020/12/31 13:13:21;;;;;;;3.83;1.88;;;;;;;15.50;41.81;92896.28;5042908;28;20028;-77
2020/12/31 13:15:48;;;;;;;5.88;2.30;;;;;;;15.47;41.59;92901.53;5063151;28;20048;-78
2020/12/31 13:18:14;;;;;;;6.30;2.42;;;;;;;15.26;41.83;92893.75;5067835;28;20114;-77
2020/12/31 13:20:40;;;;;;;4.15;2.55;;;;;;;15.34;42.29;92926.66;5068791;28;20036;-75
2020/12/31 13:23:06;;;;;;;7.70;2.47;;;;;;;15.32;42.14;92919.00;5067283;28;20093;-78
2020/12/31 13:25:33;;;;;;;5.22;3.20;;;;;;;15.33;42.53;92911.81;5069612;28;20024;-76
2020/12/31 13:27:59;;;;;;;7.90;2.50;;;;;;;15.33;42.69;92903.81;5050184;28;20032;-77
2020/12/31 13:30:24;;;;;;;5.40;1.65;;;;;;;15.32;42.16;92910.25;5062482;28;20056;-76
2020/12/31 13:32:50;;;;;;;5.45;2.33;;;;;;;15.30;42.24;92920.44;5067716;28;20416;-76
2020/12/31 13:35:15;;;;;;;5.53;2.13;;;;;;;15.37;41.54;92933.97;5067674;28;20046;-76
2020/12/31 13:37:41;;;;;;;8.52;4.70;;;;;;;15.40;42.95;92925.28;5067858;28;21064;-76
2020/12/31 13:40:07;;;;;;;8.10;3.55;;;;;;;15.40;43.71;92931.38;5052193;28;20036;-76
2020/12/31 13:42:33;;;;;;;5.85;2.53;;;;;;;15.44;42.59;92932.25;5068152;28;20043;-77
2020/12/31 13:44:59;;;;;;;8.50;3.15;;;;;;;15.44;43.30;92942.16;5054519;28;20511;-77
2020/12/31 13:47:25;;;;;;;7.10;1.80;;;;;;;15.51;42.91;92924.50;5048681;28;20052;-77
2020/12/31 13:49:50;;;;;;;4.18;1.55;;;;;;;15.40;42.37;92939.38;5044685;28;20017;-77
2020/12/31 13:52:16;;;;;;;7.57;2.75;;;;;;;15.39;42.29;92942.41;5050700;28;20619;-77
2020/12/31 13:54:41;;;;;;;5.28;1.90;;;;;;;15.37;42.78;92948.06;5044277;28;20039;-77
2020/12/31 13:57:07;;;;;;;4.65;1.85;;;;;;;15.34;42.27;92956.72;5051352;28;20506;-77
2020/12/31 13:59:32;;;;;;;14.07;5.32;;;;;;;15.24;43.03;92937.78;5056079;28;20063;-77
2020/12/31 14:01:58;;;;;;;6.85;2.00;;;;;;;15.16;43.66;92958.88;5043258;28;20035;-77
2020/12/31 14:04:24;;;;;;;3.63;1.98;;;;;;;15.11;42.88;92943.13;5049574;28;20029;-77
2020/12/31 14:06:53;;;;;;;8.43;1.77;;;;;;;14.94;42.56;92938.09;5046091;28;20041;-76
2020/12/31 14:09:20;;;;;;;3.38;1.67;;;;;;;15.09;42.32;92952.56;5046985;28;20045;-77
2020/12/31 14:11:53;;;;;;;3.20;2.03;;;;;;;15.03;43.09;92933.41;5051106;28;20045;-80
2020/12/31 14:14:20;;;;;;;5.20;1.70;;;;;;;15.04;42.82;92942.16;5047418;28;20143;-76
2020/12/31 14:16:46;;;;;;;6.78;1.88;;;;;;;15.15;42.26;92941.34;5041237;28;20029;-77
2020/12/31 14:19:11;;;;;;;3.80;2.72;;;;;;;15.21;42.46;92943.75;5050877;28;20027;-77
2020/12/31 14:21:37;;;;;;;6.80;3.38;;;;;;;15.18;43.27;92946.00;5032652;28;20090;-78
2020/12/31 14:24:06;;;;;;;13.02;3.15;;;;;;;15.16;43.26;92952.75;5043717;28;20167;-77
2020/12/31 14:26:40;;;;;;;8.88;2.17;;;;;;;15.18;43.59;92950.56;5043185;28;20082;-77
2020/12/31 14:29:08;;;;;;;5.82;2.42;;;;;;;15.23;43.36;92949.53;5043053;28;20045;-77
2020/12/31 14:31:40;;;;;;;7.38;3.20;;;;;;;15.22;43.53;92958.63;5043864;28;20033;-77
2020/12/31 14:34:07;;;;;;;15.75;7.25;;;;;;;15.17;43.94;92964.97;5038654;28;20623;-78
2020/12/31 14:36:38;;;;;;;5.38;1.65;;;;;;;15.20;42.80;92974.19;5057837;28;20509;-77
2020/12/31 14:39:03;;;;;;;6.35;1.70;;;;;;;15.04;42.53;92966.88;5057072;28;20611;-77
2020/12/31 14:41:29;;;;;;;6.43;3.30;;;;;;;15.04;42.34;92966.88;5064246;28;20047;-76
2020/12/31 14:43:54;;;;;;;5.03;1.60;;;;;;;14.95;42.14;92952.16;5063467;28;20023;-77
2020/12/31 14:46:20;;;;;;;6.93;1.98;;;;;;;14.91;41.77;92968.00;5050002;28;20020;-76
2020/12/31 14:48:46;;;;;;;6.28;2.72;;;;;;;14.94;42.28;92956.69;5065065;28;20040;-76
2020/12/31 14:51:11;;;;;;;7.93;3.63;;;;;;;15.00;43.11;92962.56;5069456;28;20437;-77
2020/12/31 14:53:37;;;;;;;5.43;3.30;;;;;;;14.99;43.29;92967.13;5071643;28;20040;-77
2020/12/31 14:56:03;;;;;;;5.07;1.88;;;;;;;14.93;43.45;92976.44;5052915;28;20219;-77
2020/12/31 14:58:28;;;;;;;3.17;1.40;;;;;;;14.95;42.94;92973.44;5065683;28;20507;-77
2020/12/31 15:00:54;;;;;;;14.15;5.65;;;;;;;14.87;43.33;92958.38;5047825;27;20052;-78
2020/12/31 15:03:20;;;;;;;5.60;2.53;;;;;;;14.78;44.10;92966.47;5047444;28;20848;-77
2020/12/31 15:05:45;;;;;;;5.82;2.72;;;;;;;14.77;44.33;92975.56;5061697;28;20036;-77
2020/12/31 15:08:11;;;;;;;4.45;2.70;;;;;;;14.72;44.81;92973.13;5060055;28;20032;-77
2020/12/31 15:10:37;;;;;;;9.50;4.03;;;;;;;14.73;44.39;92972.00;5066460;28;20074;-76
2020/12/31 15:13:03;;;;;;;5.65;3.38;;;;;;;14.69;44.11;92973.78;5051077;28;20101;-77
2020/12/31 15:15:28;;;;;;;7.72;3.10;;;;;;;14.49;43.83;92964.03;5059141;28;21309;-78
2020/12/31 15:17:54;;;;;;;8.70;6.85;;;;;;;14.48;44.40;92971.25;5066977;28;20043;-77
2020/12/31 15:20:20;;;;;;;8.02;6.85;;;;;;;14.50;44.54;92957.63;5060108;28;20159;-78
2020/12/31 15:22:46;;;;;;;6.25;3.80;;;;;;;14.53;44.05;92972.91;5063608;28;20030;-82
2020/12/31 15:25:11;;;;;;;3.55;2.00;;;;;;;14.42;44.83;92966.47;5052556;28;20096;-77
2020/12/31 15:27:37;;;;;;;6.13;2.50;;;;;;;14.40;44.15;92963.38;5048649;28;20043;-77
2020/12/31 15:30:05;;;;;;;5.32;2.42;;;;;;;14.42;44.17;92963.81;5065254;28;20480;-77
2020/12/31 15:32:30;;;;;;;22.38;11.48;;;;;;;14.33;45.77;92962.00;5063846;28;20044;-79
2020/12/31 15:34:56;;;;;;;5.03;2.22;;;;;;;14.21;44.05;92962.03;5062961;28;20290;-77
2020/12/31 15:37:21;;;;;;;8.18;3.03;;;;;;;14.30;44.46;92953.94;5068442;28;20024;-77
2020/12/31 15:39:47;;;;;;;58.30;30.30;;;;;;;14.36;44.38;92957.16;5061145;28;20044;-77
2020/12/31 15:42:12;;;;;;;6.90;4.03;;;;;;;14.33;44.28;92961.22;5047297;28;20081;-77
2020/12/31 15:44:38;;;;;;;38.30;17.48;;;;;;;14.30;44.23;92973.31;5061894;28;20531;-77
2020/12/31 15:47:03;;;;;;;20.60;12.57;;;;;;;14.25;44.80;92970.88;5060874;28;20420;-77
2020/12/31 15:49:28;;;;;;;7.35;3.35;;;;;;;14.07;44.17;92966.09;5070983;28;20118;-76
2020/12/31 15:51:54;;;;;;;14.60;10.13;;;;;;;14.11;45.53;92966.97;5066524;28;20090;-76
2020/12/31 15:54:19;;;;;;;19.17;10.57;;;;;;;14.16;46.05;92969.44;5063689;28;21210;-77
2020/12/31 15:56:49;;;;;;;11.68;7.57;;;;;;;14.10;45.86;92992.78;5059832;28;20105;-76
2020/12/31 15:59:15;;;;;;;11.15;6.90;;;;;;;13.97;45.83;92988.53;5061338;28;20041;-77
2020/12/31 16:01:41;;;;;;;10.77;4.95;;;;;;;13.82;44.91;92986.50;5063873;28;20567;-76
2020/12/31 16:04:07;;;;;;;8.25;4.07;;;;;;;13.93;44.47;92992.94;5069094;28;20051;-76
2020/12/31 16:06:33;;;;;;;14.93;8.52;;;;;;;13.91;44.73;92976.56;5045554;28;20051;-76
2020/12/31 16:08:58;;;;;;;9.35;3.67;;;;;;;13.80;44.17;92978.06;5055362;28;20040;-77
2020/12/31 16:11:24;;;;;;;5.80;4.45;;;;;;;13.93;45.42;92987.63;5065431;28;20158;-76
2020/12/31 16:13:50;;;;;;;12.45;6.85;;;;;;;14.03;45.11;92995.19;5067501;28;20429;-76
2020/12/31 16:16:16;;;;;;;9.93;5.50;;;;;;;14.03;46.03;93013.78;5066482;28;20032;-76
2020/12/31 16:18:42;;;;;;;11.65;8.07;;;;;;;14.01;45.66;93016.00;5031738;28;20032;-78
2020/12/31 16:21:13;;;;;;;7.55;3.63;;;;;;;13.92;46.26;93033.91;5050659;28;20045;-79
2020/12/31 16:23:39;;;;;;;14.35;8.45;;;;;;;13.77;46.16;93015.91;5039820;28;20037;-78
2020/12/31 16:26:05;;;;;;;4.05;2.10;;;;;;;13.79;46.30;93001.19;5042801;28;20044;-78
2020/12/31 16:28:34;;;;;;;3.80;3.05;;;;;;;13.86;46.45;93011.28;5044717;28;20024;-76
2020/12/31 16:31:01;;;;;;;5.05;2.33;;;;;;;13.76;46.31;93012.47;5050266;28;20584;-77
2020/12/31 16:33:27;;;;;;;17.85;6.60;;;;;;;13.72;46.47;93013.47;5045091;28;20080;-75
2020/12/31 16:35:53;;;;;;;4.45;2.67;;;;;;;13.73;46.20;93007.06;5048520;28;20046;-79
2020/12/31 16:38:19;;;;;;;7.03;3.05;;;;;;;13.72;45.97;93021.44;5060311;28;20040;-76
2020/12/31 16:40:45;;;;;;;4.47;2.83;;;;;;;13.80;46.37;93024.00;5046523;28;20020;-76
2020/12/31 16:43:11;;;;;;;16.23;10.65;;;;;;;13.85;45.97;93028.31;5046790;28;20590;-76
2020/12/31 16:45:36;;;;;;;13.93;7.20;;;;;;;13.76;45.69;93019.66;5044982;28;20049;-76
2020/12/31 16:48:03;;;;;;;11.60;4.65;;;;;;;13.79;45.77;93021.66;5047215;28;20488;-76
2020/12/31 16:50:32;;;;;;;5.53;2.60;;;;;;;13.75;46.28;93031.38;5032298;28;20051;-76
2020/12/31 16:52:59;;;;;;;4.45;2.53;;;;;;;13.55;46.16;93045.44;5052635;28;20031;-76
2020/12/31 16:55:24;;;;;;;3.38;2.35;;;;;;;13.41;46.21;93019.19;5054355;28;20040;-76
2020/12/31 16:57:50;;;;;;;5.72;3.70;;;;;;;13.55;46.71;93043.56;5046182;28;20040;-77
2020/12/31 17:00:16;;;;;;;2.63;1.48;;;;;;;13.47;46.14;93038.34;5045293;28;20105;-77
2020/12/31 17:02:42;;;;;;;4.78;2.50;;;;;;;13.52;46.60;93046.13;5061402;28;20702;-77
2020/12/31 17:05:08;;;;;;;13.30;6.65;;;;;;;13.57;47.28;93049.34;5070701;28;20040;-77
2020/12/31 17:07:34;;;;;;;2.88;1.73;;;;;;;13.40;46.19;93038.84;5057918;28;20058;-77
2020/12/31 17:10:00;;;;;;;6.97;4.68;;;;;;;13.36;47.00;93053.88;5070035;28;20951;-78
2020/12/31 17:12:27;;;;;;;2.28;1.17;;;;;;;13.37;46.15;93045.59;5056669;28;20047;-76
2020/12/31 17:14:53;;;;;;;4.47;2.08;;;;;;;13.47;46.55;93059.56;5064104;28;20048;-77
2020/12/31 17:17:18;;;;;;;5.40;2.30;;;;;;;13.58;47.81;93069.50;5067701;28;20043;-77
2020/12/31 17:19:44;;;;;;;2.90;1.35;;;;;;;13.56;46.97;93073.56;5053216;28;20016;-77
2020/12/31 17:22:10;;;;;;;2.22;1.10;;;;;;;13.49;46.54;93068.75;5073114;28;20020;-76
2020/12/31 17:24:35;;;;;;;6.00;1.40;;;;;;;13.43;47.01;93080.69;5071478;28;20090;-76
2020/12/31 17:27:01;;;;;;;2.00;1.25;;;;;;;13.38;47.09;93079.00;5070284;28;20697;-76
2020/12/31 17:29:26;;;;;;;1.15;1.05;;;;;;;13.43;47.04;93080.69;5066731;28;20788;-78
2020/12/31 17:31:52;;;;;;;1.65;1.25;;;;;;;13.30;47.38;93090.44;5063872;28;25579;-76
2020/12/31 17:34:17;;;;;;;18.90;10.80;;;;;;;13.32;46.98;93085.59;5072034;28;20028;-76
2020/12/31 17:36:44;;;;;;;4.10;3.05;;;;;;;13.29;47.02;93102.13;5068956;28;20035;-76
2020/12/31 17:39:12;;;;;;;2.95;2.25;;;;;;;13.31;47.65;93089.34;5068423;28;20630;-77
2020/12/31 17:41:38;;;;;;;4.32;2.33;;;;;;;13.35;47.01;93092.13;5070499;28;20573;-76
2020/12/31 17:44:05;;;;;;;8.20;1.98;;;;;;;13.39;47.17;93091.16;5049653;28;20048;-78
2020/12/31 17:46:30;;;;;;;5.35;1.85;;;;;;;13.42;47.18;93109.09;5068272;28;20024;-77
2020/12/31 17:48:56;;;;;;;5.47;2.72;;;;;;;13.50;47.37;93107.47;5042471;28;20055;-77
2020/12/31 17:51:23;;;;;;;6.57;3.42;;;;;;;13.58;47.77;93111.19;5067795;28;20105;-76
2020/12/31 17:53:49;;;;;;;7.85;5.10;;;;;;;13.59;48.01;93120.69;5031606;28;20040;-77
2020/12/31 17:56:17;;;;;;;68.18;44.47;;;;;;;13.54;47.74;93113.69;5044985;28;20033;-76
2020/12/31 17:58:43;;;;;;;32.72;22.17;;;;;;;13.48;47.47;93109.69;5043283;28;20066;-77
2020/12/31 18:01:09;;;;;;;6.45;4.70;;;;;;;13.51;47.47;93118.88;5063747;28;20531;-76
2020/12/31 18:03:35;;;;;;;2.00;1.63;;;;;;;13.45;46.93;93108.44;5054637;28;20044;-77
2020/12/31 18:06:01;;;;;;;6.13;3.50;;;;;;;13.44;47.78;93108.75;5064175;28;20060;-77
2020/12/31 18:08:27;;;;;;;2.30;1.92;;;;;;;13.35;47.56;93116.78;5067897;28;20087;-78
2020/12/31 18:10:54;;;;;;;4.03;1.88;;;;;;;13.32;47.47;93117.44;5064593;28;20121;-77
2020/12/31 18:13:20;;;;;;;3.97;1.98;;;;;;;13.40;47.42;93107.84;5051933;28;20032;-76
2020/12/31 18:15:45;;;;;;;3.72;2.40;;;;;;;13.45;48.29;93121.72;5047890;28;20103;-76
2020/12/31 18:18:11;;;;;;;7.45;4.10;;;;;;;13.40;48.40;93108.63;5053830;28;20127;-76
2020/12/31 18:20:36;;;;;;;8.43;5.05;;;;;;;13.38;49.35;93104.75;5068088;28;20097;-77
2020/12/31 18:23:08;;;;;;;9.80;5.30;;;;;;;13.41;48.57;93120.03;5066709;28;20476;-77
2020/12/31 18:25:33;;;;;;;8.52;5.38;;;;;;;13.34;48.89;93107.25;5070434;28;20114;-77
2020/12/31 18:27:59;;;;;;;14.50;9.80;;;;;;;13.28;48.07;93119.19;5069733;28;20458;-76
2020/12/31 18:30:24;;;;;;;7.28;4.93;;;;;;;13.14;48.43;93102.72;5069621;28;20562;-77
2020/12/31 18:32:50;;;;;;;11.25;4.18;;;;;;;13.12;48.11;93117.38;5067687;28;20079;-77
2020/12/31 18:35:15;;;;;;;4.13;1.80;;;;;;;13.00;47.22;93131.28;5067944;28;20470;-78
2020/12/31 18:37:45;;;;;;;4.25;2.78;;;;;;;12.91;46.73;93126.03;5052247;28;20495;-76
2020/12/31 18:40:12;;;;;;;4.63;2.90;;;;;;;12.92;46.71;93118.84;5067102;28;20040;-77
2020/12/31 18:42:45;;;;;;;2.28;1.50;;;;;;;12.97;46.78;93116.03;5065416;28;20054;-77
2020/12/31 18:45:13;;;;;;;28.70;11.68;;;;;;;13.04;46.71;93111.00;5069253;28;20040;-77
2020/12/31 18:47:43;;;;;;;12.95;4.63;;;;;;;13.08;45.70;93111.13;5068279;28;20048;-76
2020/12/31 18:50:10;;;;;;;11.13;4.65;;;;;;;13.13;46.21;93125.03;5050201;28;20068;-76
2020/12/31 18:52:36;;;;;;;7.38;3.60;;;;;;;13.11;45.44;93111.28;5068995;28;20016;-77
2020/12/31 18:55:03;;;;;;;7.05;2.20;;;;;;;13.12;44.78;93112.84;5068249;28;20051;-76
2020/12/31 18:57:28;;;;;;;5.97;4.13;;;;;;;13.12;44.67;93123.47;5068743;28;20067;-76